Smithfield, Virginia
Current Conditions -  °F | °C
As of 10:58 PM on Thursday 18 Dec 2014 (Local Time) from KFAF Reporting Station
Broken Clouds Broken Clouds  
Wind Chill: 38°   Ceiling: 11000
Heat Index: 38°   Visibility: 10mi
Dew Point: 25°   Wind: 3mph
Humidity: 61%   Direction: NA
Pressure: 30.08"   Gusts: NA
Location:  36.98°N, 76.62°W
Report Text: KFAF 190358Z AUTO VRB03KT 10SM SCT090 BKN110 03/M04 A3008 RMK AO2 SLPNO T00311037 $
Loading
Personal Weather Stations






























Interactive Weather Map New forecast layout! Learn more

10-Day Weather Forecast

Advertisements
Track Severe Weather on mobile